< < Back
Terminal Aerodrome Forecast


Current Version              Previous Versions:   1  2  3  4  5  6  7  8  9  

Terminal Aerodrome Forecast

226
FTUS42 KGSP 251734
TAFGSP
TAF
KGSP 251734Z 2518/2618 11004KT P6SM FEW060
     FM260000 12004KT P6SM VCTS BKN060CB
     FM260300 08004KT P6SM BKN060
     FM260800 05003KT P6SM BKN020
     FM261000 07003KT 5SM BR SCT003 BKN008
     FM261200 12003KT P6SM OVC008
     FM261500 18004KT P6SM BKN030=

Latest METAR

052
SAUS70 KWBC 260300 RRH
MTRGSP
METAR KGSP 260253Z 17004KT 10SM BKN060 BKN075 24/18 A3009 RMK AO2 SLP177
T02440183 51013


USA.gov is the U.S. government's official web portal to all federal, state and local government web resources and services.